createdAt,value
2019-03-04T00:01:39.909Z,22.57
2019-03-04T00:04:09.439Z,22.67
2019-03-04T00:06:38.851Z,22.40
2019-03-04T00:09:09.855Z,23.53
2019-03-04T00:11:39.367Z,23.13
2019-03-04T00:14:09.311Z,24.03
2019-03-04T00:16:38.845Z,22.93
2019-03-04T00:19:08.364Z,24.23
2019-03-04T00:21:37.870Z,24.40
2019-03-04T00:24:07.369Z,23.93
2019-03-04T00:26:36.763Z,23.60
2019-03-04T00:29:06.345Z,24.40
2019-03-04T00:31:35.990Z,24.77
2019-03-04T00:34:05.393Z,22.10
2019-03-04T00:36:34.795Z,22.90
2019-03-04T00:39:05.925Z,21.73
2019-03-04T00:41:35.721Z,20.37
2019-03-04T00:44:05.178Z,21.17
2019-03-04T00:46:35.166Z,23.37
2019-03-04T00:49:04.569Z,25.40
2019-03-04T00:51:33.982Z,30.83
2019-03-04T00:54:03.522Z,32.20
2019-03-04T00:56:32.996Z,31.90
2019-03-04T00:59:02.430Z,32.20
2019-03-04T01:01:31.879Z,33.03
2019-03-04T01:04:01.373Z,33.93
2019-03-04T01:06:30.878Z,34.67
2019-03-04T01:09:00.343Z,33.97
2019-03-04T01:11:29.743Z,34.10
2019-03-04T01:13:59.236Z,31.87
2019-03-04T01:16:28.778Z,30.93
2019-03-04T01:18:58.164Z,28.97
2019-03-04T01:21:27.561Z,26.40
2019-03-04T01:23:57.682Z,24.47
2019-03-04T01:26:27.086Z,23.93
2019-03-04T01:28:56.612Z,25.23
2019-03-04T01:31:26.144Z,26.30
2019-03-04T01:33:55.555Z,24.80
2019-03-04T01:36:24.969Z,24.80
2019-03-04T01:38:54.701Z,24.57
2019-03-04T01:41:24.190Z,25.13
2019-03-04T01:43:53.676Z,24.70
2019-03-04T01:46:23.129Z,24.67
2019-03-04T01:48:52.625Z,25.23
2019-03-04T01:51:22.111Z,23.77
2019-03-04T01:53:51.548Z,22.93
2019-03-04T01:56:20.953Z,22.73
2019-03-04T01:58:50.430Z,22.27
2019-03-04T02:01:19.983Z,23.53
2019-03-04T02:03:49.368Z,22.23
2019-03-04T02:06:18.850Z,23.03
2019-03-04T02:08:48.304Z,23.97
2019-03-04T02:11:17.701Z,22.90
2019-03-04T02:13:47.193Z,25.17
2019-03-04T02:16:16.773Z,23.00
2019-03-04T02:18:46.190Z,23.00
2019-03-04T02:21:15.598Z,22.57
2019-03-04T02:23:45.145Z,23.03
2019-03-04T02:26:21.879Z,23.63
2019-03-04T02:28:51.386Z,23.73
2019-03-04T02:31:20.799Z,24.00
2019-03-04T02:33:50.294Z,24.70
2019-03-04T02:36:20.333Z,23.23
2019-03-04T02:38:49.729Z,24.87
2019-03-04T02:41:19.119Z,23.40
2019-03-04T02:43:48.668Z,20.87
2019-03-04T02:46:18.093Z,23.37
2019-03-04T02:48:47.605Z,25.23
2019-03-04T02:51:17.163Z,23.80
2019-03-04T02:53:47.059Z,25.70
2019-03-04T02:56:16.478Z,24.70
2019-03-04T02:58:46.034Z,26.23
2019-03-04T03:01:15.818Z,25.03
2019-03-04T03:03:45.234Z,25.63
2019-03-04T03:06:14.678Z,23.77
2019-03-04T03:08:44.183Z,25.80
2019-03-04T03:11:13.689Z,25.67
2019-03-04T03:13:43.138Z,24.93
2019-03-04T03:16:12.550Z,24.57
2019-03-04T03:18:42.036Z,24.10
2019-03-04T03:21:11.710Z,24.17
2019-03-04T03:23:41.111Z,23.30
2019-03-04T03:26:10.617Z,24.23
2019-03-04T03:28:40.069Z,24.77
2019-03-04T03:31:09.474Z,22.73
2019-03-04T03:33:38.979Z,23.50
2019-03-04T03:36:08.528Z,24.90
2019-03-04T03:38:37.931Z,24.27
2019-03-04T03:41:07.725Z,23.80
2019-03-04T03:43:37.364Z,23.33
2019-03-04T03:46:07.472Z,23.03
2019-03-04T03:48:36.866Z,22.20
2019-03-04T03:51:06.563Z,22.90
2019-03-04T03:53:36.054Z,24.23
2019-03-04T03:56:05.774Z,23.10
2019-03-04T03:58:35.488Z,23.33
2019-03-04T04:01:04.926Z,23.73
2019-03-04T04:03:34.411Z,22.20
2019-03-04T04:06:04.075Z,22.87
2019-03-04T04:08:33.497Z,24.03
2019-03-04T04:11:02.891Z,22.20
2019-03-04T04:13:32.632Z,23.10
2019-03-04T04:16:02.121Z,22.57
2019-03-04T04:18:31.518Z,22.97
2019-03-04T04:21:01.019Z,22.97
2019-03-04T04:23:30.516Z,22.60
2019-03-04T04:26:00.020Z,22.60
2019-03-04T04:28:30.945Z,22.70
2019-03-04T04:31:00.338Z,20.80
2019-03-04T04:33:29.827Z,22.70
2019-03-04T04:35:59.394Z,21.23
2019-03-04T04:38:28.799Z,23.13
2019-03-04T04:40:58.215Z,21.97
2019-03-04T04:43:27.881Z,22.93
2019-03-04T04:45:57.465Z,23.43
2019-03-04T04:48:27.035Z,23.77
2019-03-04T04:50:56.592Z,22.33
2019-03-04T04:53:26.017Z,22.47
2019-03-04T04:55:55.439Z,22.20
2019-03-04T04:58:25.007Z,23.00
2019-03-04T05:00:54.517Z,23.37
2019-03-04T05:03:23.907Z,23.57
2019-03-04T05:05:53.395Z,23.90
2019-03-04T05:08:22.909Z,25.10
2019-03-04T05:10:52.420Z,23.97
2019-03-04T05:13:21.890Z,23.93
2019-03-04T05:15:51.316Z,24.53
2019-03-04T05:18:20.822Z,22.80
2019-03-04T05:20:50.377Z,24.57
2019-03-04T05:23:19.830Z,24.80
2019-03-04T05:25:49.373Z,23.07
2019-03-04T05:28:18.826Z,25.43
2019-03-04T05:30:48.239Z,24.47
2019-03-04T05:33:17.758Z,24.30
2019-03-04T05:35:47.388Z,24.13
2019-03-04T05:38:16.769Z,24.67
2019-03-04T05:40:46.190Z,26.77
2019-03-04T05:43:15.903Z,23.70
2019-03-04T05:45:45.532Z,24.73
2019-03-04T05:48:14.988Z,25.40
2019-03-04T05:50:44.880Z,24.87
2019-03-04T05:53:14.407Z,25.57
2019-03-04T05:55:43.970Z,25.23
2019-03-04T05:58:13.445Z,24.63
2019-03-04T06:00:43.550Z,26.10
2019-03-04T06:03:13.774Z,25.13
2019-03-04T06:05:43.230Z,25.90
2019-03-04T06:08:12.813Z,26.27
2019-03-04T06:10:42.305Z,26.37
2019-03-04T06:13:11.762Z,26.27
2019-03-04T06:15:41.200Z,24.23
2019-03-04T06:18:10.747Z,26.27
2019-03-04T06:20:40.432Z,25.57
2019-03-04T06:23:09.847Z,22.47
2019-03-04T06:25:39.277Z,24.53
2019-03-04T06:28:08.982Z,26.10
2019-03-04T06:30:38.514Z,26.83
2019-03-04T06:33:08.009Z,25.97
2019-03-04T06:35:37.643Z,26.67
2019-03-04T06:38:07.146Z,26.30
2019-03-04T06:40:36.837Z,26.27
2019-03-04T06:43:06.463Z,28.30
2019-03-04T06:45:36.089Z,27.00
2019-03-04T06:48:05.543Z,26.67
2019-03-04T06:50:54.736Z,26.93
2019-03-04T06:53:37.600Z,27.43
2019-03-04T06:56:30.053Z,27.77
2019-03-04T06:59:13.251Z,26.10
2019-03-04T07:01:47.120Z,28.10
2019-03-04T07:04:28.139Z,26.63
2019-03-04T07:06:57.716Z,27.60
2019-03-04T07:09:27.137Z,28.50
2019-03-04T07:11:56.567Z,26.43
2019-03-04T07:14:26.139Z,28.03
2019-03-04T07:16:55.640Z,28.00
2019-03-04T07:19:30.128Z,25.43
2019-03-04T07:21:59.586Z,25.03
2019-03-04T07:24:29.136Z,24.43
2019-03-04T07:26:58.577Z,28.30
2019-03-04T07:29:28.169Z,26.70
2019-03-04T07:31:57.752Z,26.43
2019-03-04T07:34:27.328Z,27.17
2019-03-04T07:36:56.743Z,27.53
2019-03-04T07:39:26.275Z,24.57
2019-03-04T07:41:57.459Z,26.27
2019-03-04T07:44:26.888Z,25.53
2019-03-04T07:46:56.326Z,26.97
2019-03-04T07:49:26.247Z,26.10
2019-03-04T07:51:55.767Z,25.83
2019-03-04T07:54:25.197Z,26.33
2019-03-04T07:56:54.860Z,24.90
2019-03-04T07:59:24.468Z,25.97
2019-03-04T08:01:54.002Z,27.07
2019-03-04T08:04:23.477Z,29.13
2019-03-04T08:07:05.271Z,27.63
2019-03-04T08:10:09.700Z,26.83
2019-03-04T08:13:16.172Z,26.43
2019-03-04T08:15:48.633Z,26.10
2019-03-04T08:18:18.189Z,26.13
2019-03-04T08:20:47.717Z,26.43
2019-03-04T08:23:17.395Z,27.43
2019-03-04T08:25:46.862Z,25.90
2019-03-04T08:28:16.724Z,27.73
2019-03-04T08:30:46.188Z,25.57
2019-03-04T08:33:15.616Z,26.57
2019-03-04T08:35:45.147Z,24.43
2019-03-04T08:38:14.930Z,25.97
2019-03-04T08:40:44.445Z,24.07
2019-03-04T08:43:13.902Z,25.17
2019-03-04T08:45:43.539Z,26.17
2019-03-04T08:48:13.103Z,28.57
2019-03-04T08:50:42.609Z,25.37
2019-03-04T08:53:12.148Z,27.00
2019-03-04T08:55:41.547Z,26.67
2019-03-04T08:58:11.251Z,26.07
2019-03-04T09:00:41.110Z,26.17
2019-03-04T09:03:10.620Z,25.87
2019-03-04T09:05:40.033Z,25.53
2019-03-04T09:08:09.540Z,26.20
2019-03-04T09:10:39.080Z,24.27
2019-03-04T09:13:08.531Z,24.43
2019-03-04T09:15:38.041Z,25.50
2019-03-04T09:18:07.443Z,24.63
2019-03-04T09:20:37.061Z,25.07
2019-03-04T09:23:07.308Z,26.97
2019-03-04T09:25:42.663Z,23.27
2019-03-04T09:28:12.116Z,22.30
2019-03-04T09:30:41.610Z,23.93
2019-03-04T09:33:11.153Z,21.53
2019-03-04T09:35:40.816Z,23.50
2019-03-04T09:38:10.221Z,22.17
2019-03-04T09:40:39.817Z,22.87
2019-03-04T09:43:09.666Z,21.70
2019-03-04T09:45:39.537Z,21.70
2019-03-04T09:48:09.196Z,20.37
2019-03-04T09:50:39.500Z,21.60
2019-03-04T09:53:39.942Z,21.07
2019-03-04T09:56:06.293Z,20.43
2019-03-04T09:58:36.108Z,20.20
2019-03-04T10:01:22.267Z,21.93
2019-03-04T10:04:14.878Z,20.23
2019-03-04T10:07:07.156Z,19.13
2019-03-04T10:10:26.886Z,20.50
2019-03-04T10:13:25.235Z,17.80
2019-03-04T10:16:08.200Z,19.57
2019-03-04T10:19:29.830Z,19.00
2019-03-04T10:22:43.543Z,17.87
2019-03-04T10:25:44.336Z,18.93
2019-03-04T10:28:53.078Z,17.60
2019-03-04T10:31:47.592Z,17.40
2019-03-04T10:35:00.569Z,16.23
2019-03-04T10:38:11.408Z,15.43
2019-03-04T10:41:31.028Z,16.37
2019-03-04T10:44:42.810Z,17.03
2019-03-04T10:47:12.468Z,18.63
2019-03-04T10:49:41.974Z,16.90
2019-03-04T10:52:11.587Z,14.70
2019-03-04T10:54:41.173Z,16.97
2019-03-04T10:57:10.644Z,16.07
2019-03-04T10:59:40.698Z,17.30
2019-03-04T11:02:10.201Z,16.93
2019-03-04T11:04:40.038Z,16.73
2019-03-04T11:07:09.539Z,15.90
2019-03-04T11:09:39.028Z,15.13
2019-03-04T11:12:09.132Z,14.70
2019-03-04T11:14:38.747Z,12.63
2019-03-04T11:17:08.192Z,14.43
2019-03-04T11:19:37.692Z,15.07
2019-03-04T11:22:07.567Z,13.30
2019-03-04T11:24:38.178Z,13.07
2019-03-04T11:27:07.898Z,12.57
2019-03-04T11:29:37.768Z,12.20
2019-03-04T11:32:08.153Z,11.67
2019-03-04T11:34:37.630Z,10.53
2019-03-04T11:37:07.222Z,10.83
2019-03-04T11:40:04.576Z,9.43
2019-03-04T11:42:34.237Z,10.23
2019-03-04T11:45:04.080Z,9.83
2019-03-04T11:47:33.633Z,8.37
2019-03-04T11:50:03.096Z,10.37
2019-03-04T11:52:32.507Z,9.50
2019-03-04T11:55:02.063Z,10.57
2019-03-04T11:57:31.908Z,10.87
2019-03-04T12:00:01.327Z,11.33
2019-03-04T12:02:39.000Z,12.00
2019-03-04T12:05:03.536Z,11.83
2019-03-04T12:07:33.122Z,12.20
2019-03-04T12:10:02.525Z,11.30
2019-03-04T12:12:32.294Z,11.47
2019-03-04T12:15:02.147Z,11.53
2019-03-04T12:17:31.638Z,10.77
2019-03-04T12:20:01.297Z,11.43
2019-03-04T12:22:30.918Z,10.57
2019-03-04T12:25:00.409Z,10.70
2019-03-04T12:27:29.963Z,10.13
2019-03-04T12:29:59.476Z,9.80
2019-03-04T12:32:36.083Z,10.03
2019-03-04T12:35:08.862Z,10.47
2019-03-04T12:37:38.260Z,9.90
2019-03-04T12:40:09.676Z,9.47
2019-03-04T12:42:39.152Z,8.37
2019-03-04T12:45:10.591Z,9.33
2019-03-04T12:47:40.129Z,8.80
2019-03-04T12:50:13.133Z,9.00
2019-03-04T12:52:42.650Z,8.67
2019-03-04T12:55:12.748Z,7.87
2019-03-04T12:57:43.609Z,8.53
2019-03-04T13:00:16.356Z,7.20
2019-03-04T13:02:45.945Z,7.80
2019-03-04T13:05:15.662Z,8.33
2019-03-04T13:07:45.393Z,8.47
2019-03-04T13:10:15.706Z,7.70
2019-03-04T13:12:46.132Z,7.90
2019-03-04T13:15:18.101Z,7.60
2019-03-04T13:17:49.770Z,7.70
2019-03-04T13:20:19.486Z,7.43
2019-03-04T13:22:54.768Z,7.63
2019-03-04T13:25:24.704Z,7.10
2019-03-04T13:27:54.719Z,7.00
2019-03-04T13:30:24.761Z,7.07
2019-03-04T13:32:54.228Z,7.70
2019-03-04T13:35:25.033Z,7.43
2019-03-04T13:37:54.738Z,6.80
2019-03-04T13:40:24.234Z,6.57
2019-03-04T13:42:53.863Z,7.27
2019-03-04T13:45:23.943Z,6.57
2019-03-04T13:47:53.661Z,7.37
2019-03-04T13:50:24.454Z,8.03
2019-03-04T13:52:54.564Z,7.47
2019-03-04T13:55:24.124Z,7.63
2019-03-04T13:57:53.620Z,7.17
2019-03-04T14:00:23.350Z,8.33
2019-03-04T14:02:52.935Z,8.03
2019-03-04T14:05:22.551Z,7.60
2019-03-04T14:07:52.238Z,7.23
2019-03-04T14:10:21.905Z,8.20
2019-03-04T14:12:51.409Z,7.10
2019-03-04T14:15:26.989Z,7.37
2019-03-04T14:17:56.627Z,8.93
2019-03-04T14:20:27.340Z,7.87
2019-03-04T14:22:57.986Z,7.73
2019-03-04T14:25:27.679Z,8.03
2019-03-04T14:27:58.024Z,7.70
2019-03-04T14:30:27.604Z,7.83
2019-03-04T14:32:57.094Z,6.93
2019-03-04T14:35:26.595Z,7.53
2019-03-04T14:37:56.355Z,6.87
2019-03-04T14:40:28.303Z,6.77
2019-03-04T14:42:58.335Z,6.67
2019-03-04T14:45:27.951Z,8.47
2019-03-04T14:47:57.575Z,11.17
2019-03-04T14:50:28.519Z,7.10
2019-03-04T14:52:58.230Z,6.30
2019-03-04T14:55:27.747Z,6.20
2019-03-04T14:57:57.305Z,6.73
2019-03-04T15:00:33.697Z,7.30
2019-03-04T15:03:03.414Z,7.00
2019-03-04T15:05:32.923Z,6.43
2019-03-04T15:08:02.409Z,6.70
2019-03-04T15:10:32.022Z,7.00
2019-03-04T15:13:01.451Z,8.30
2019-03-04T15:15:32.721Z,7.63
2019-03-04T15:18:02.363Z,6.70
2019-03-04T15:20:33.613Z,6.23
2019-03-04T15:23:03.116Z,6.40
2019-03-04T15:25:32.809Z,6.43
2019-03-04T15:28:21.621Z,6.70
2019-03-04T15:30:53.704Z,6.73
2019-03-04T15:33:23.161Z,7.53
2019-03-04T15:35:52.772Z,6.13
2019-03-04T15:38:23.984Z,6.97
2019-03-04T15:40:54.115Z,7.57
2019-03-04T15:43:24.152Z,7.80
2019-03-04T15:45:54.380Z,7.30
2019-03-04T15:48:25.145Z,6.40
2019-03-04T15:50:55.876Z,8.23
2019-03-04T15:53:25.594Z,8.53
2019-03-04T15:55:55.237Z,7.20
2019-03-04T15:58:24.778Z,8.47
2019-03-04T16:00:54.613Z,10.10
2019-03-04T16:03:25.641Z,10.03
2019-03-04T16:05:55.090Z,10.97
2019-03-04T16:08:24.539Z,9.50
2019-03-04T16:10:54.263Z,9.77
2019-03-04T16:13:23.748Z,8.90
2019-03-04T16:15:53.212Z,10.10
2019-03-04T16:18:22.812Z,9.20
2019-03-04T16:20:52.222Z,9.43
2019-03-04T16:23:21.711Z,10.67
2019-03-04T16:25:51.177Z,10.57
2019-03-04T16:28:23.541Z,12.33
2019-03-04T16:30:53.085Z,12.43
2019-03-04T16:33:28.630Z,12.83
2019-03-04T16:35:58.221Z,12.90
2019-03-04T16:38:27.707Z,12.30
2019-03-04T16:40:57.124Z,10.80
2019-03-04T16:43:26.703Z,11.37
2019-03-04T16:45:56.219Z,10.87
2019-03-04T16:48:26.115Z,10.63
2019-03-04T16:50:55.817Z,11.50
2019-03-04T16:53:25.469Z,10.90
2019-03-04T16:55:54.988Z,10.43
2019-03-04T16:58:24.472Z,10.97
2019-03-04T17:00:54.078Z,12.83
2019-03-04T17:03:23.815Z,12.83
2019-03-04T17:05:53.433Z,12.27
2019-03-04T17:08:22.886Z,12.97
2019-03-04T17:10:52.405Z,11.93
2019-03-04T17:13:22.004Z,12.63
2019-03-04T17:15:51.516Z,13.60
2019-03-04T17:18:20.962Z,14.33
2019-03-04T17:20:50.674Z,11.37
2019-03-04T17:23:20.282Z,16.17
2019-03-04T17:25:49.686Z,17.60
2019-03-04T17:28:19.568Z,14.47
2019-03-04T17:30:49.185Z,15.30
2019-03-04T17:33:18.798Z,15.13
2019-03-04T17:35:48.281Z,15.40
2019-03-04T17:38:17.711Z,17.90
2019-03-04T17:40:47.221Z,16.27
2019-03-04T17:43:16.966Z,16.63
2019-03-04T17:45:46.446Z,16.13
2019-03-04T17:48:16.058Z,16.30
2019-03-04T17:50:46.707Z,15.50
2019-03-04T17:53:16.263Z,18.33
2019-03-04T17:55:45.659Z,24.20
2019-03-04T17:58:17.340Z,28.07
2019-03-04T18:00:52.186Z,25.60
2019-03-04T18:03:21.711Z,22.17
2019-03-04T18:05:51.454Z,22.13
2019-03-04T18:08:20.880Z,28.37
2019-03-04T18:10:50.446Z,18.10
2019-03-04T18:13:19.951Z,16.23
2019-03-04T18:15:49.457Z,16.50
2019-03-04T18:18:19.163Z,21.87
2019-03-04T18:20:48.634Z,21.03
2019-03-04T18:23:18.152Z,19.93
2019-03-04T18:25:51.202Z,23.87
2019-03-04T18:28:41.217Z,21.70
2019-03-04T18:31:32.421Z,22.80
2019-03-04T18:34:31.253Z,34.70
2019-03-04T18:37:40.552Z,31.13
2019-03-04T18:40:25.966Z,38.07
2019-03-04T18:43:21.324Z,29.43
2019-03-04T18:46:27.808Z,36.57
2019-03-04T18:49:01.604Z,43.77
2019-03-04T18:51:36.194Z,37.87
2019-03-04T18:54:11.650Z,32.43
2019-03-04T18:56:43.661Z,30.53
2019-03-04T18:59:13.249Z,30.87
2019-03-04T19:01:42.876Z,32.33
2019-03-04T19:04:12.452Z,28.17
2019-03-04T19:06:41.982Z,21.17
2019-03-04T19:09:11.837Z,26.73
2019-03-04T19:11:41.486Z,26.67
2019-03-04T19:14:11.370Z,24.57
2019-03-04T19:16:41.170Z,21.67
2019-03-04T19:19:10.590Z,21.90
2019-03-04T19:21:40.017Z,25.23
2019-03-04T19:24:09.759Z,29.03
2019-03-04T19:26:39.374Z,25.50
2019-03-04T19:29:10.819Z,24.17
2019-03-04T19:31:39.936Z,23.57
2019-03-04T19:34:09.468Z,24.83
2019-03-04T19:36:38.987Z,25.23
2019-03-04T19:39:09.271Z,25.60
2019-03-04T19:41:38.879Z,25.53
2019-03-04T19:44:08.292Z,24.10
2019-03-04T19:46:37.873Z,25.03
2019-03-04T19:49:07.457Z,25.30
2019-03-04T19:51:36.972Z,25.60
2019-03-04T19:54:06.413Z,28.80
2019-03-04T19:56:35.868Z,29.17
2019-03-04T19:59:05.714Z,27.03
2019-03-04T20:01:35.403Z,27.93
2019-03-04T20:04:04.803Z,32.47
2019-03-04T20:06:34.239Z,28.57
2019-03-04T20:09:05.819Z,26.33
2019-03-04T20:11:35.398Z,25.97
2019-03-04T20:14:04.787Z,34.23
2019-03-04T20:16:34.269Z,28.97
2019-03-04T20:19:03.755Z,28.03
2019-03-04T20:21:33.242Z,25.80
2019-03-04T20:24:02.778Z,24.40
2019-03-04T20:26:32.198Z,27.03
2019-03-04T20:29:01.704Z,26.50
2019-03-04T20:31:31.316Z,29.03
2019-03-04T20:34:00.741Z,32.27
2019-03-04T20:36:32.455Z,31.07
2019-03-04T20:39:02.154Z,31.23
2019-03-04T20:41:32.099Z,33.17
2019-03-04T20:44:01.587Z,33.30
2019-03-04T20:46:31.207Z,39.03
2019-03-04T20:49:00.708Z,43.60
2019-03-04T20:51:30.180Z,46.03
2019-03-04T20:53:59.840Z,42.30
2019-03-04T20:56:29.265Z,44.57
2019-03-04T20:58:58.858Z,45.27
2019-03-04T21:01:28.603Z,45.93
2019-03-04T21:03:58.217Z,46.90
2019-03-04T21:06:27.793Z,48.07
2019-03-04T21:08:57.239Z,50.80
2019-03-04T21:11:26.660Z,49.37
2019-03-04T21:13:56.155Z,46.63
2019-03-04T21:16:25.833Z,45.40
2019-03-04T21:18:55.361Z,40.67
2019-03-04T21:21:24.786Z,39.23
2019-03-04T21:23:54.322Z,42.73
2019-03-04T21:26:26.570Z,39.57
2019-03-04T21:29:29.939Z,37.23
2019-03-04T21:32:00.708Z,35.90
2019-03-04T21:35:26.501Z,38.03
2019-03-04T21:37:56.341Z,35.93
2019-03-04T21:40:55.314Z,34.47
2019-03-04T21:43:38.177Z,35.63
2019-03-04T21:46:38.478Z,36.43
2019-03-04T21:49:10.293Z,34.30
2019-03-04T21:52:32.296Z,35.20
2019-03-04T21:55:03.254Z,33.20
2019-03-04T21:57:48.405Z,33.33
2019-03-04T22:00:25.857Z,33.57
2019-03-04T22:03:18.944Z,31.67
2019-03-04T22:05:50.488Z,32.33
2019-03-04T22:08:19.657Z,31.07
2019-03-04T22:10:49.092Z,30.43
2019-03-04T22:13:19.098Z,31.77
2019-03-04T22:15:48.689Z,30.93
2019-03-04T22:18:18.237Z,29.40
2019-03-04T22:20:47.802Z,29.03
2019-03-04T22:23:17.450Z,26.67
2019-03-04T22:25:47.090Z,25.93
2019-03-04T22:28:16.607Z,27.73
2019-03-04T22:30:46.109Z,31.27
2019-03-04T22:33:15.892Z,31.60
2019-03-04T22:35:45.598Z,31.27
2019-03-04T22:38:15.295Z,33.10
2019-03-04T22:40:45.020Z,30.17
2019-03-04T22:43:14.404Z,29.70
2019-03-04T22:45:43.818Z,29.27
2019-03-04T22:48:13.349Z,29.87
2019-03-04T22:50:42.831Z,31.43
2019-03-04T22:53:12.262Z,31.67
2019-03-04T22:55:41.695Z,35.37
2019-03-04T22:58:11.263Z,37.37
2019-03-04T23:01:41.985Z,33.77
2019-03-04T23:04:31.794Z,32.50
2019-03-04T23:07:16.617Z,30.30
2019-03-04T23:10:23.128Z,31.27
2019-03-04T23:13:33.389Z,28.57
2019-03-04T23:16:03.985Z,27.87
2019-03-04T23:18:33.469Z,26.73
2019-03-04T23:21:03.075Z,27.33
2019-03-04T23:23:32.474Z,26.77
2019-03-04T23:26:01.955Z,27.93
2019-03-04T23:28:32.166Z,29.33
2019-03-04T23:31:01.555Z,30.70
2019-03-04T23:33:30.957Z,26.90
2019-03-04T23:36:00.484Z,25.83
2019-03-04T23:38:30.456Z,26.37
2019-03-04T23:40:59.900Z,26.00
2019-03-04T23:43:29.688Z,23.40
2019-03-04T23:45:59.190Z,22.80
2019-03-04T23:48:28.598Z,23.40
2019-03-04T23:50:58.164Z,25.23
2019-03-04T23:53:27.761Z,25.13
2019-03-04T23:55:57.190Z,25.27
2019-03-04T23:58:27.771Z,26.77
